sensor_id;sensor_type;location;lat;lon;timestamp;temperature;humidity
18335;DHT22;9293;49.524;10.964;2023-07-29T00:01:07;18.10;99.90
18335;DHT22;9293;49.524;10.964;2023-07-29T00:03:35;18.20;99.90
18335;DHT22;9293;49.524;10.964;2023-07-29T00:06:03;18.20;99.90
18335;DHT22;9293;49.524;10.964;2023-07-29T00:08:31;18.20;99.90
18335;DHT22;9293;49.524;10.964;2023-07-29T00:10:59;18.20;99.90
18335;DHT22;9293;49.524;10.964;2023-07-29T00:13:27;18.10;99.90
18335;DHT22;9293;49.524;10.964;2023-07-29T00:15:56;18.10;99.90
18335;DHT22;9293;49.524;10.964;2023-07-29T00:18:24;18.10;99.90
18335;DHT22;9293;49.524;10.964;2023-07-29T00:20:52;18.10;99.90
18335;DHT22;9293;49.524;10.964;2023-07-29T00:23:20;18.10;99.90
18335;DHT22;9293;49.524;10.964;2023-07-29T00:25:49;18.10;99.90
18335;DHT22;9293;49.524;10.964;2023-07-29T00:28:17;18.00;99.90
18335;DHT22;9293;49.524;10.964;2023-07-29T00:30:49;18.00;99.90
18335;DHT22;9293;49.524;10.964;2023-07-29T00:33:17;18.00;99.90
18335;DHT22;9293;49.524;10.964;2023-07-29T00:35:45;18.00;99.90
18335;DHT22;9293;49.524;10.964;2023-07-29T00:38:13;18.00;99.90
18335;DHT22;9293;49.524;10.964;2023-07-29T00:40:41;18.00;99.90
18335;DHT22;9293;49.524;10.964;2023-07-29T00:43:10;17.90;99.90
18335;DHT22;9293;49.524;10.964;2023-07-29T00:45:38;17.90;99.90
18335;DHT22;9293;49.524;10.964;2023-07-29T00:48:06;17.90;99.90
18335;DHT22;9293;49.524;10.964;2023-07-29T00:50:35;17.90;99.90
18335;DHT22;9293;49.524;10.964;2023-07-29T00:53:03;17.80;99.90
18335;DHT22;9293;49.524;10.964;2023-07-29T00:55:31;17.80;99.90
18335;DHT22;9293;49.524;10.964;2023-07-29T00:58:00;17.80;99.90
18335;DHT22;9293;49.524;10.964;2023-07-29T01:00:28;17.80;99.90
18335;DHT22;9293;49.524;10.964;2023-07-29T01:02:56;17.80;99.90
18335;DHT22;9293;49.524;10.964;2023-07-29T01:05:25;17.80;99.90
18335;DHT22;9293;49.524;10.964;2023-07-29T01:08:04;17.80;99.90
18335;DHT22;9293;49.524;10.964;2023-07-29T01:10:43;17.80;99.90
18335;DHT22;9293;49.524;10.964;2023-07-29T01:18:23;17.70;99.90
18335;DHT22;9293;49.524;10.964;2023-07-29T01:20:54;17.70;99.90
18335;DHT22;9293;49.524;10.964;2023-07-29T01:23:26;17.70;99.90
18335;DHT22;9293;49.524;10.964;2023-07-29T01:25:58;17.70;99.90
18335;DHT22;9293;49.524;10.964;2023-07-29T01:28:26;17.70;99.90
18335;DHT22;9293;49.524;10.964;2023-07-29T01:31:42;17.60;99.90
18335;DHT22;9293;49.524;10.964;2023-07-29T01:33:45;17.60;99.90
18335;DHT22;9293;49.524;10.964;2023-07-29T01:36:20;17.60;99.90
18335;DHT22;9293;49.524;10.964;2023-07-29T01:38:51;17.50;99.90
18335;DHT22;9293;49.524;10.964;2023-07-29T01:41:19;17.50;99.90
18335;DHT22;9293;49.524;10.964;2023-07-29T01:43:48;17.50;99.90
18335;DHT22;9293;49.524;10.964;2023-07-29T01:46:17;17.50;99.90
18335;DHT22;9293;49.524;10.964;2023-07-29T01:48:47;17.50;99.90
18335;DHT22;9293;49.524;10.964;2023-07-29T01:51:15;17.40;99.90
18335;DHT22;9293;49.524;10.964;2023-07-29T01:53:43;17.40;99.90
18335;DHT22;9293;49.524;10.964;2023-07-29T01:56:11;17.40;99.90
18335;DHT22;9293;49.524;10.964;2023-07-29T01:58:49;17.30;99.90
18335;DHT22;9293;49.524;10.964;2023-07-29T02:01:17;17.30;99.90
18335;DHT22;9293;49.524;10.964;2023-07-29T02:03:45;17.30;99.90
18335;DHT22;9293;49.524;10.964;2023-07-29T02:06:14;17.20;99.90
18335;DHT22;9293;49.524;10.964;2023-07-29T02:08:42;17.10;99.90
18335;DHT22;9293;49.524;10.964;2023-07-29T02:11:10;17.10;99.90
18335;DHT22;9293;49.524;10.964;2023-07-29T02:13:38;17.00;99.90
18335;DHT22;9293;49.524;10.964;2023-07-29T02:16:06;16.90;99.90
18335;DHT22;9293;49.524;10.964;2023-07-29T02:18:34;16.90;99.90
18335;DHT22;9293;49.524;10.964;2023-07-29T02:21:02;16.90;99.90
18335;DHT22;9293;49.524;10.964;2023-07-29T02:23:30;16.90;99.90
18335;DHT22;9293;49.524;10.964;2023-07-29T02:25:59;16.90;99.90
18335;DHT22;9293;49.524;10.964;2023-07-29T02:28:27;16.90;99.90
18335;DHT22;9293;49.524;10.964;2023-07-29T02:33:43;16.90;99.90
18335;DHT22;9293;49.524;10.964;2023-07-29T02:36:12;16.90;99.90
18335;DHT22;9293;49.524;10.964;2023-07-29T02:38:42;16.80;99.90
18335;DHT22;9293;49.524;10.964;2023-07-29T02:41:14;16.80;99.90
18335;DHT22;9293;49.524;10.964;2023-07-29T02:43:47;16.80;99.90
18335;DHT22;9293;49.524;10.964;2023-07-29T02:46:16;16.80;99.90
18335;DHT22;9293;49.524;10.964;2023-07-29T02:48:44;16.70;99.90
18335;DHT22;9293;49.524;10.964;2023-07-29T02:51:13;16.60;99.90
18335;DHT22;9293;49.524;10.964;2023-07-29T02:53:41;16.60;99.90
18335;DHT22;9293;49.524;10.964;2023-07-29T02:56:09;16.60;99.90
18335;DHT22;9293;49.524;10.964;2023-07-29T02:58:37;16.60;99.90
18335;DHT22;9293;49.524;10.964;2023-07-29T03:01:06;16.60;99.90
18335;DHT22;9293;49.524;10.964;2023-07-29T03:03:35;16.60;99.90
18335;DHT22;9293;49.524;10.964;2023-07-29T03:06:04;16.50;99.90
18335;DHT22;9293;49.524;10.964;2023-07-29T03:08:33;16.50;99.90
18335;DHT22;9293;49.524;10.964;2023-07-29T03:11:05;16.50;99.90
18335;DHT22;9293;49.524;10.964;2023-07-29T03:13:34;16.50;99.90
18335;DHT22;9293;49.524;10.964;2023-07-29T03:16:09;16.50;99.90
18335;DHT22;9293;49.524;10.964;2023-07-29T03:18:38;16.50;99.90
18335;DHT22;9293;49.524;10.964;2023-07-29T03:21:06;16.40;99.90
18335;DHT22;9293;49.524;10.964;2023-07-29T03:23:35;16.40;99.90
18335;DHT22;9293;49.524;10.964;2023-07-29T03:26:03;16.40;99.90
18335;DHT22;9293;49.524;10.964;2023-07-29T03:28:39;16.50;99.90
18335;DHT22;9293;49.524;10.964;2023-07-29T03:31:08;16.50;99.90
18335;DHT22;9293;49.524;10.964;2023-07-29T03:33:36;16.60;99.90
18335;DHT22;9293;49.524;10.964;2023-07-29T03:36:05;16.60;99.90
18335;DHT22;9293;49.524;10.964;2023-07-29T03:38:33;16.60;99.90
18335;DHT22;9293;49.524;10.964;2023-07-29T03:41:03;16.60;99.90
18335;DHT22;9293;49.524;10.964;2023-07-29T03:43:31;16.60;99.90
18335;DHT22;9293;49.524;10.964;2023-07-29T03:46:01;16.60;99.90
18335;DHT22;9293;49.524;10.964;2023-07-29T03:48:29;16.60;99.90
18335;DHT22;9293;49.524;10.964;2023-07-29T03:51:01;16.60;99.90
18335;DHT22;9293;49.524;10.964;2023-07-29T03:53:37;16.60;99.90
18335;DHT22;9293;49.524;10.964;2023-07-29T03:56:05;16.70;99.90
18335;DHT22;9293;49.524;10.964;2023-07-29T03:58:33;16.70;99.90
18335;DHT22;9293;49.524;10.964;2023-07-29T04:01:01;16.70;99.90
18335;DHT22;9293;49.524;10.964;2023-07-29T04:03:29;16.70;99.90
18335;DHT22;9293;49.524;10.964;2023-07-29T04:05:58;16.70;99.90
18335;DHT22;9293;49.524;10.964;2023-07-29T04:08:26;16.80;99.90
18335;DHT22;9293;49.524;10.964;2023-07-29T04:10:54;16.70;99.90
18335;DHT22;9293;49.524;10.964;2023-07-29T04:13:23;16.80;99.90
18335;DHT22;9293;49.524;10.964;2023-07-29T04:15:51;16.90;99.90
18335;DHT22;9293;49.524;10.964;2023-07-29T04:18:19;16.90;99.90
18335;DHT22;9293;49.524;10.964;2023-07-29T04:20:48;17.00;99.90
18335;DHT22;9293;49.524;10.964;2023-07-29T04:23:16;17.00;99.90
18335;DHT22;9293;49.524;10.964;2023-07-29T04:25:44;17.10;99.90
18335;DHT22;9293;49.524;10.964;2023-07-29T04:28:12;17.10;99.90
18335;DHT22;9293;49.524;10.964;2023-07-29T04:30:40;17.20;99.90
18335;DHT22;9293;49.524;10.964;2023-07-29T04:33:08;17.20;99.90
18335;DHT22;9293;49.524;10.964;2023-07-29T04:35:37;17.30;99.90
18335;DHT22;9293;49.524;10.964;2023-07-29T04:38:05;17.30;99.90
18335;DHT22;9293;49.524;10.964;2023-07-29T04:40:33;17.40;99.90
18335;DHT22;9293;49.524;10.964;2023-07-29T04:43:01;17.50;99.90
18335;DHT22;9293;49.524;10.964;2023-07-29T04:45:29;17.60;99.90
18335;DHT22;9293;49.524;10.964;2023-07-29T04:47:59;17.70;99.90
18335;DHT22;9293;49.524;10.964;2023-07-29T04:50:27;17.70;99.90
18335;DHT22;9293;49.524;10.964;2023-07-29T04:52:56;17.80;99.90
18335;DHT22;9293;49.524;10.964;2023-07-29T04:55:24;17.80;99.90
18335;DHT22;9293;49.524;10.964;2023-07-29T04:57:52;17.90;99.90
18335;DHT22;9293;49.524;10.964;2023-07-29T05:00:24;17.90;99.90
18335;DHT22;9293;49.524;10.964;2023-07-29T05:02:53;17.90;99.90
18335;DHT22;9293;49.524;10.964;2023-07-29T05:05:21;18.00;99.90
18335;DHT22;9293;49.524;10.964;2023-07-29T05:07:49;18.00;99.90
18335;DHT22;9293;49.524;10.964;2023-07-29T05:10:18;18.10;99.90
18335;DHT22;9293;49.524;10.964;2023-07-29T05:12:46;18.10;99.90
18335;DHT22;9293;49.524;10.964;2023-07-29T05:15:14;18.10;99.90
18335;DHT22;9293;49.524;10.964;2023-07-29T05:17:42;18.10;99.90
18335;DHT22;9293;49.524;10.964;2023-07-29T05:20:12;18.10;99.90
18335;DHT22;9293;49.524;10.964;2023-07-29T05:22:41;18.20;99.90
18335;DHT22;9293;49.524;10.964;2023-07-29T05:25:09;18.20;99.90
18335;DHT22;9293;49.524;10.964;2023-07-29T05:27:37;18.20;99.90
18335;DHT22;9293;49.524;10.964;2023-07-29T05:30:05;18.20;99.90
18335;DHT22;9293;49.524;10.964;2023-07-29T05:32:34;18.20;99.90
18335;DHT22;9293;49.524;10.964;2023-07-29T05:35:02;18.20;99.90
18335;DHT22;9293;49.524;10.964;2023-07-29T05:37:31;18.20;99.90
18335;DHT22;9293;49.524;10.964;2023-07-29T05:39:59;18.20;99.90
18335;DHT22;9293;49.524;10.964;2023-07-29T05:42:27;18.30;99.90
18335;DHT22;9293;49.524;10.964;2023-07-29T05:44:58;18.40;99.90
18335;DHT22;9293;49.524;10.964;2023-07-29T05:47:29;18.50;99.90
18335;DHT22;9293;49.524;10.964;2023-07-29T05:49:58;18.50;99.90
18335;DHT22;9293;49.524;10.964;2023-07-29T05:52:28;18.50;99.90
18335;DHT22;9293;49.524;10.964;2023-07-29T05:54:57;18.50;99.90
18335;DHT22;9293;49.524;10.964;2023-07-29T05:57:25;18.60;99.90
18335;DHT22;9293;49.524;10.964;2023-07-29T05:59:53;18.60;99.90
18335;DHT22;9293;49.524;10.964;2023-07-29T06:02:23;18.70;99.90
18335;DHT22;9293;49.524;10.964;2023-07-29T06:04:51;18.60;99.90
18335;DHT22;9293;49.524;10.964;2023-07-29T06:07:19;18.60;99.90
18335;DHT22;9293;49.524;10.964;2023-07-29T06:09:48;18.60;99.90
18335;DHT22;9293;49.524;10.964;2023-07-29T06:12:16;18.60;99.90
18335;DHT22;9293;49.524;10.964;2023-07-29T06:14:44;18.50;99.90
18335;DHT22;9293;49.524;10.964;2023-07-29T06:17:15;18.50;99.90
18335;DHT22;9293;49.524;10.964;2023-07-29T06:19:43;18.50;99.90
18335;DHT22;9293;49.524;10.964;2023-07-29T06:22:11;18.50;99.90
18335;DHT22;9293;49.524;10.964;2023-07-29T06:24:39;18.50;99.90
18335;DHT22;9293;49.524;10.964;2023-07-29T06:27:07;18.50;99.90
18335;DHT22;9293;49.524;10.964;2023-07-29T06:29:35;18.50;99.90
18335;DHT22;9293;49.524;10.964;2023-07-29T06:32:04;18.50;99.90
18335;DHT22;9293;49.524;10.964;2023-07-29T06:34:32;18.50;99.90
18335;DHT22;9293;49.524;10.964;2023-07-29T06:37:00;18.50;99.90
18335;DHT22;9293;49.524;10.964;2023-07-29T06:39:28;18.50;99.90
18335;DHT22;9293;49.524;10.964;2023-07-29T06:41:56;18.40;99.90
18335;DHT22;9293;49.524;10.964;2023-07-29T06:44:24;18.40;99.90
18335;DHT22;9293;49.524;10.964;2023-07-29T06:46:52;18.40;99.90
18335;DHT22;9293;49.524;10.964;2023-07-29T06:49:20;18.30;99.90
18335;DHT22;9293;49.524;10.964;2023-07-29T06:51:49;18.20;99.90
18335;DHT22;9293;49.524;10.964;2023-07-29T06:54:17;18.20;99.90
18335;DHT22;9293;49.524;10.964;2023-07-29T06:56:45;18.20;99.90
18335;DHT22;9293;49.524;10.964;2023-07-29T06:59:13;18.10;99.90
18335;DHT22;9293;49.524;10.964;2023-07-29T07:01:41;18.00;99.90
18335;DHT22;9293;49.524;10.964;2023-07-29T07:04:09;18.00;99.90
18335;DHT22;9293;49.524;10.964;2023-07-29T07:06:37;17.90;99.90
18335;DHT22;9293;49.524;10.964;2023-07-29T07:09:06;17.90;99.90
18335;DHT22;9293;49.524;10.964;2023-07-29T07:11:34;17.90;99.90
18335;DHT22;9293;49.524;10.964;2023-07-29T07:14:02;18.00;99.90
18335;DHT22;9293;49.524;10.964;2023-07-29T07:16:30;18.00;99.90
18335;DHT22;9293;49.524;10.964;2023-07-29T07:18:58;18.10;99.90
18335;DHT22;9293;49.524;10.964;2023-07-29T07:21:26;18.10;99.90
18335;DHT22;9293;49.524;10.964;2023-07-29T07:23:54;18.10;99.90
18335;DHT22;9293;49.524;10.964;2023-07-29T07:26:22;18.10;99.90
18335;DHT22;9293;49.524;10.964;2023-07-29T07:28:51;18.20;99.90
18335;DHT22;9293;49.524;10.964;2023-07-29T07:31:19;18.30;99.90
18335;DHT22;9293;49.524;10.964;2023-07-29T07:33:47;18.40;99.90
18335;DHT22;9293;49.524;10.964;2023-07-29T07:36:16;18.60;99.90
18335;DHT22;9293;49.524;10.964;2023-07-29T07:38:44;18.70;99.90
18335;DHT22;9293;49.524;10.964;2023-07-29T07:41:13;18.80;99.90
18335;DHT22;9293;49.524;10.964;2023-07-29T07:43:41;18.80;99.90
18335;DHT22;9293;49.524;10.964;2023-07-29T07:46:09;18.80;99.90
18335;DHT22;9293;49.524;10.964;2023-07-29T07:48:37;18.80;99.90
18335;DHT22;9293;49.524;10.964;2023-07-29T07:51:12;18.70;99.90
18335;DHT22;9293;49.524;10.964;2023-07-29T07:53:40;18.70;99.90
18335;DHT22;9293;49.524;10.964;2023-07-29T07:56:08;18.70;99.90
18335;DHT22;9293;49.524;10.964;2023-07-29T07:58:36;18.70;99.90
18335;DHT22;9293;49.524;10.964;2023-07-29T08:01:05;18.60;99.90
18335;DHT22;9293;49.524;10.964;2023-07-29T08:03:35;18.60;99.90
18335;DHT22;9293;49.524;10.964;2023-07-29T08:06:03;18.70;99.90
18335;DHT22;9293;49.524;10.964;2023-07-29T08:08:36;18.70;99.90
18335;DHT22;9293;49.524;10.964;2023-07-29T08:11:04;18.70;99.90
18335;DHT22;9293;49.524;10.964;2023-07-29T08:13:32;18.70;99.90
18335;DHT22;9293;49.524;10.964;2023-07-29T08:16:00;18.60;99.90
18335;DHT22;9293;49.524;10.964;2023-07-29T08:18:28;18.60;99.90
18335;DHT22;9293;49.524;10.964;2023-07-29T08:20:57;18.60;99.90
18335;DHT22;9293;49.524;10.964;2023-07-29T08:23:26;18.60;99.90
18335;DHT22;9293;49.524;10.964;2023-07-29T08:25:54;18.60;99.90
18335;DHT22;9293;49.524;10.964;2023-07-29T08:28:24;18.50;99.90
18335;DHT22;9293;49.524;10.964;2023-07-29T08:30:52;18.50;99.90
18335;DHT22;9293;49.524;10.964;2023-07-29T08:33:20;18.50;99.90
18335;DHT22;9293;49.524;10.964;2023-07-29T08:35:48;18.50;99.90
18335;DHT22;9293;49.524;10.964;2023-07-29T08:38:16;18.50;99.90
18335;DHT22;9293;49.524;10.964;2023-07-29T08:43:31;18.50;99.90
18335;DHT22;9293;49.524;10.964;2023-07-29T08:46:00;18.50;99.90
18335;DHT22;9293;49.524;10.964;2023-07-29T08:48:36;18.50;99.90
18335;DHT22;9293;49.524;10.964;2023-07-29T08:51:10;18.60;99.90
18335;DHT22;9293;49.524;10.964;2023-07-29T08:53:41;18.60;99.90
18335;DHT22;9293;49.524;10.964;2023-07-29T08:56:09;18.70;99.90
18335;DHT22;9293;49.524;10.964;2023-07-29T08:58:38;18.70;99.90
18335;DHT22;9293;49.524;10.964;2023-07-29T09:01:07;18.70;99.90
18335;DHT22;9293;49.524;10.964;2023-07-29T09:03:36;18.80;99.90
18335;DHT22;9293;49.524;10.964;2023-07-29T09:06:04;18.90;99.90
18335;DHT22;9293;49.524;10.964;2023-07-29T09:08:33;18.90;99.90
18335;DHT22;9293;49.524;10.964;2023-07-29T09:11:01;19.00;99.90
18335;DHT22;9293;49.524;10.964;2023-07-29T09:13:30;19.00;99.90
18335;DHT22;9293;49.524;10.964;2023-07-29T09:15:58;19.10;99.90
18335;DHT22;9293;49.524;10.964;2023-07-29T09:18:26;19.00;99.90
18335;DHT22;9293;49.524;10.964;2023-07-29T09:20:55;19.00;99.90
18335;DHT22;9293;49.524;10.964;2023-07-29T09:23:26;18.90;99.90
18335;DHT22;9293;49.524;10.964;2023-07-29T09:26:02;18.90;99.90
18335;DHT22;9293;49.524;10.964;2023-07-29T09:28:34;18.90;99.90
18335;DHT22;9293;49.524;10.964;2023-07-29T09:31:03;18.90;99.90
18335;DHT22;9293;49.524;10.964;2023-07-29T09:33:34;18.90;99.90
18335;DHT22;9293;49.524;10.964;2023-07-29T09:36:10;19.00;99.90
18335;DHT22;9293;49.524;10.964;2023-07-29T09:38:38;19.00;99.90
18335;DHT22;9293;49.524;10.964;2023-07-29T09:41:07;19.10;99.90
18335;DHT22;9293;49.524;10.964;2023-07-29T09:43:35;19.20;99.90
18335;DHT22;9293;49.524;10.964;2023-07-29T09:46:04;19.30;99.90
18335;DHT22;9293;49.524;10.964;2023-07-29T09:48:32;19.40;99.90
18335;DHT22;9293;49.524;10.964;2023-07-29T09:51:10;19.50;99.90
18335;DHT22;9293;49.524;10.964;2023-07-29T09:53:43;19.70;99.90
18335;DHT22;9293;49.524;10.964;2023-07-29T09:56:13;20.10;99.90
18335;DHT22;9293;49.524;10.964;2023-07-29T09:58:42;20.70;99.90
18335;DHT22;9293;49.524;10.964;2023-07-29T10:01:11;21.30;99.90
18335;DHT22;9293;49.524;10.964;2023-07-29T10:03:39;21.80;99.90
18335;DHT22;9293;49.524;10.964;2023-07-29T10:06:07;22.20;99.90
18335;DHT22;9293;49.524;10.964;2023-07-29T10:08:35;22.40;99.90
18335;DHT22;9293;49.524;10.964;2023-07-29T10:11:06;22.70;99.90
18335;DHT22;9293;49.524;10.964;2023-07-29T10:13:35;23.40;99.90
18335;DHT22;9293;49.524;10.964;2023-07-29T10:16:04;23.90;99.90
18335;DHT22;9293;49.524;10.964;2023-07-29T10:18:33;24.10;99.90
18335;DHT22;9293;49.524;10.964;2023-07-29T10:21:01;24.10;99.90
18335;DHT22;9293;49.524;10.964;2023-07-29T10:23:32;23.90;99.90
18335;DHT22;9293;49.524;10.964;2023-07-29T10:26:02;23.60;99.90
18335;DHT22;9293;49.524;10.964;2023-07-29T10:28:32;23.20;99.90
18335;DHT22;9293;49.524;10.964;2023-07-29T10:31:02;23.20;99.90
18335;DHT22;9293;49.524;10.964;2023-07-29T10:33:32;23.10;99.90
18335;DHT22;9293;49.524;10.964;2023-07-29T10:36:01;23.00;99.90
18335;DHT22;9293;49.524;10.964;2023-07-29T10:38:29;23.30;99.90
18335;DHT22;9293;49.524;10.964;2023-07-29T10:40:58;23.10;99.90
18335;DHT22;9293;49.524;10.964;2023-07-29T10:43:32;23.10;99.90
18335;DHT22;9293;49.524;10.964;2023-07-29T10:49:07;22.70;99.90
18335;DHT22;9293;49.524;10.964;2023-07-29T10:51:36;22.80;99.90
18335;DHT22;9293;49.524;10.964;2023-07-29T10:54:11;22.80;99.90
18335;DHT22;9293;49.524;10.964;2023-07-29T10:56:40;23.10;99.90
18335;DHT22;9293;49.524;10.964;2023-07-29T11:01:40;23.50;99.90
18335;DHT22;9293;49.524;10.964;2023-07-29T11:14:56;24.20;99.90
18335;DHT22;9293;49.524;10.964;2023-07-29T11:17:24;24.50;99.90
18335;DHT22;9293;49.524;10.964;2023-07-29T11:19:53;25.10;99.90
18335;DHT22;9293;49.524;10.964;2023-07-29T11:22:23;25.50;99.90
18335;DHT22;9293;49.524;10.964;2023-07-29T11:24:52;25.40;99.90
18335;DHT22;9293;49.524;10.964;2023-07-29T11:27:20;25.10;99.90
18335;DHT22;9293;49.524;10.964;2023-07-29T11:29:48;24.50;99.90
18335;DHT22;9293;49.524;10.964;2023-07-29T11:32:16;24.20;99.90
18335;DHT22;9293;49.524;10.964;2023-07-29T11:34:44;23.80;99.90
18335;DHT22;9293;49.524;10.964;2023-07-29T11:37:12;23.60;99.90
18335;DHT22;9293;49.524;10.964;2023-07-29T11:39:41;23.40;99.90
18335;DHT22;9293;49.524;10.964;2023-07-29T11:42:12;23.30;99.90
18335;DHT22;9293;49.524;10.964;2023-07-29T11:44:40;23.30;99.90
18335;DHT22;9293;49.524;10.964;2023-07-29T11:47:12;23.50;99.90
18335;DHT22;9293;49.524;10.964;2023-07-29T11:49:41;23.70;99.90
18335;DHT22;9293;49.524;10.964;2023-07-29T11:52:09;24.10;99.90
18335;DHT22;9293;49.524;10.964;2023-07-29T11:54:38;24.50;99.90
18335;DHT22;9293;49.524;10.964;2023-07-29T11:57:07;24.90;99.90
18335;DHT22;9293;49.524;10.964;2023-07-29T11:59:36;25.10;99.90
18335;DHT22;9293;49.524;10.964;2023-07-29T12:02:06;25.00;99.90
18335;DHT22;9293;49.524;10.964;2023-07-29T12:04:35;25.10;99.90
18335;DHT22;9293;49.524;10.964;2023-07-29T12:07:04;25.20;99.90
18335;DHT22;9293;49.524;10.964;2023-07-29T12:09:44;25.40;99.90
18335;DHT22;9293;49.524;10.964;2023-07-29T12:12:12;25.40;99.90
18335;DHT22;9293;49.524;10.964;2023-07-29T12:14:43;25.70;99.90
18335;DHT22;9293;49.524;10.964;2023-07-29T12:17:11;26.00;99.90
18335;DHT22;9293;49.524;10.964;2023-07-29T12:19:40;26.10;99.90
18335;DHT22;9293;49.524;10.964;2023-07-29T12:22:09;26.50;99.90
18335;DHT22;9293;49.524;10.964;2023-07-29T12:24:39;26.30;99.90
18335;DHT22;9293;49.524;10.964;2023-07-29T12:27:11;26.10;99.90
18335;DHT22;9293;49.524;10.964;2023-07-29T12:29:40;26.30;99.90
18335;DHT22;9293;49.524;10.964;2023-07-29T12:32:09;26.10;99.90
18335;DHT22;9293;49.524;10.964;2023-07-29T12:34:38;26.20;99.90
18335;DHT22;9293;49.524;10.964;2023-07-29T12:37:07;26.40;99.90
18335;DHT22;9293;49.524;10.964;2023-07-29T12:39:35;26.20;99.90
18335;DHT22;9293;49.524;10.964;2023-07-29T12:42:07;25.90;99.90
18335;DHT22;9293;49.524;10.964;2023-07-29T12:44:35;25.70;99.90
18335;DHT22;9293;49.524;10.964;2023-07-29T12:47:05;25.70;99.90
18335;DHT22;9293;49.524;10.964;2023-07-29T12:49:33;25.30;99.90
18335;DHT22;9293;49.524;10.964;2023-07-29T12:52:01;25.40;99.90
18335;DHT22;9293;49.524;10.964;2023-07-29T12:54:30;25.90;99.90
18335;DHT22;9293;49.524;10.964;2023-07-29T12:56:58;26.50;99.90
18335;DHT22;9293;49.524;10.964;2023-07-29T12:59:26;26.60;99.90
18335;DHT22;9293;49.524;10.964;2023-07-29T13:01:54;26.40;99.90
18335;DHT22;9293;49.524;10.964;2023-07-29T13:04:23;26.20;99.90
18335;DHT22;9293;49.524;10.964;2023-07-29T13:06:51;26.10;99.90
18335;DHT22;9293;49.524;10.964;2023-07-29T13:09:19;25.90;99.90
18335;DHT22;9293;49.524;10.964;2023-07-29T13:11:47;26.10;99.90
18335;DHT22;9293;49.524;10.964;2023-07-29T13:14:15;26.50;99.90
18335;DHT22;9293;49.524;10.964;2023-07-29T13:16:43;27.00;99.90
18335;DHT22;9293;49.524;10.964;2023-07-29T13:19:11;27.20;99.90
18335;DHT22;9293;49.524;10.964;2023-07-29T13:21:39;27.30;99.90
18335;DHT22;9293;49.524;10.964;2023-07-29T13:24:08;27.20;99.90
18335;DHT22;9293;49.524;10.964;2023-07-29T13:26:36;27.10;99.90
18335;DHT22;9293;49.524;10.964;2023-07-29T13:29:04;26.90;99.90
18335;DHT22;9293;49.524;10.964;2023-07-29T13:31:35;26.90;99.90
18335;DHT22;9293;49.524;10.964;2023-07-29T13:34:06;27.00;99.90
18335;DHT22;9293;49.524;10.964;2023-07-29T13:36:35;26.80;99.90
18335;DHT22;9293;49.524;10.964;2023-07-29T13:39:03;26.80;99.90
18335;DHT22;9293;49.524;10.964;2023-07-29T13:41:34;26.70;99.90
18335;DHT22;9293;49.524;10.964;2023-07-29T13:44:02;26.60;99.90
18335;DHT22;9293;49.524;10.964;2023-07-29T13:46:30;26.60;99.90
18335;DHT22;9293;49.524;10.964;2023-07-29T13:48:59;26.60;99.90
18335;DHT22;9293;49.524;10.964;2023-07-29T13:51:27;26.90;99.90
18335;DHT22;9293;49.524;10.964;2023-07-29T13:53:55;26.80;99.90
18335;DHT22;9293;49.524;10.964;2023-07-29T13:56:24;26.70;99.90
18335;DHT22;9293;49.524;10.964;2023-07-29T13:58:52;27.10;99.90
18335;DHT22;9293;49.524;10.964;2023-07-29T14:01:20;27.40;99.90
18335;DHT22;9293;49.524;10.964;2023-07-29T14:03:49;27.50;99.90
18335;DHT22;9293;49.524;10.964;2023-07-29T14:06:17;27.30;99.90
18335;DHT22;9293;49.524;10.964;2023-07-29T14:08:51;27.40;99.90
18335;DHT22;9293;49.524;10.964;2023-07-29T14:11:19;27.60;99.90
18335;DHT22;9293;49.524;10.964;2023-07-29T14:13:47;27.70;99.90
18335;DHT22;9293;49.524;10.964;2023-07-29T14:16:15;27.70;99.90
18335;DHT22;9293;49.524;10.964;2023-07-29T14:18:43;27.60;99.90
18335;DHT22;9293;49.524;10.964;2023-07-29T14:21:12;27.50;99.90
18335;DHT22;9293;49.524;10.964;2023-07-29T14:23:40;27.30;99.90
18335;DHT22;9293;49.524;10.964;2023-07-29T14:26:08;27.30;99.90
18335;DHT22;9293;49.524;10.964;2023-07-29T14:28:37;27.20;99.90
18335;DHT22;9293;49.524;10.964;2023-07-29T14:31:05;26.90;99.90
18335;DHT22;9293;49.524;10.964;2023-07-29T14:33:33;26.50;99.90
18335;DHT22;9293;49.524;10.964;2023-07-29T14:36:02;26.10;99.90
18335;DHT22;9293;49.524;10.964;2023-07-29T14:38:31;26.00;99.90
18335;DHT22;9293;49.524;10.964;2023-07-29T14:40:59;26.30;99.90
18335;DHT22;9293;49.524;10.964;2023-07-29T14:43:28;26.80;99.90
18335;DHT22;9293;49.524;10.964;2023-07-29T14:45:56;26.90;99.90
18335;DHT22;9293;49.524;10.964;2023-07-29T14:48:24;27.10;99.90
18335;DHT22;9293;49.524;10.964;2023-07-29T14:50:52;27.10;99.90
18335;DHT22;9293;49.524;10.964;2023-07-29T14:53:20;27.00;99.90
18335;DHT22;9293;49.524;10.964;2023-07-29T14:55:49;27.30;99.90
18335;DHT22;9293;49.524;10.964;2023-07-29T14:58:17;27.30;99.90
18335;DHT22;9293;49.524;10.964;2023-07-29T15:00:45;27.30;99.90
18335;DHT22;9293;49.524;10.964;2023-07-29T15:03:13;27.10;99.90
18335;DHT22;9293;49.524;10.964;2023-07-29T15:05:41;26.80;99.90
18335;DHT22;9293;49.524;10.964;2023-07-29T15:08:09;26.50;99.90
18335;DHT22;9293;49.524;10.964;2023-07-29T15:10:38;26.50;99.90
18335;DHT22;9293;49.524;10.964;2023-07-29T15:13:06;26.40;99.90
18335;DHT22;9293;49.524;10.964;2023-07-29T15:15:34;26.60;99.90
18335;DHT22;9293;49.524;10.964;2023-07-29T15:18:02;26.90;99.90
18335;DHT22;9293;49.524;10.964;2023-07-29T15:20:30;27.10;99.90
18335;DHT22;9293;49.524;10.964;2023-07-29T15:22:58;27.10;99.90
18335;DHT22;9293;49.524;10.964;2023-07-29T15:25:26;27.20;99.90
18335;DHT22;9293;49.524;10.964;2023-07-29T15:27:54;27.20;99.90
18335;DHT22;9293;49.524;10.964;2023-07-29T15:30:22;27.10;99.90
18335;DHT22;9293;49.524;10.964;2023-07-29T15:32:51;27.10;99.90
18335;DHT22;9293;49.524;10.964;2023-07-29T15:35:22;27.10;99.90
18335;DHT22;9293;49.524;10.964;2023-07-29T15:37:50;27.10;99.90
18335;DHT22;9293;49.524;10.964;2023-07-29T15:40:19;27.40;99.90
18335;DHT22;9293;49.524;10.964;2023-07-29T15:42:49;27.50;99.90
18335;DHT22;9293;49.524;10.964;2023-07-29T15:45:17;27.50;99.90
18335;DHT22;9293;49.524;10.964;2023-07-29T15:47:45;27.50;99.90
18335;DHT22;9293;49.524;10.964;2023-07-29T15:50:14;27.50;99.90
18335;DHT22;9293;49.524;10.964;2023-07-29T15:52:42;27.40;99.90
18335;DHT22;9293;49.524;10.964;2023-07-29T15:55:10;27.20;99.90
18335;DHT22;9293;49.524;10.964;2023-07-29T15:57:39;27.20;99.90
18335;DHT22;9293;49.524;10.964;2023-07-29T16:00:07;27.10;99.90
18335;DHT22;9293;49.524;10.964;2023-07-29T16:02:38;27.30;99.90
18335;DHT22;9293;49.524;10.964;2023-07-29T16:05:06;27.30;99.90
18335;DHT22;9293;49.524;10.964;2023-07-29T16:07:35;27.10;99.90